createdAt,value
2019-06-08T00:00:00.723Z,15.18
2019-06-08T00:01:00.933Z,15.19
2019-06-08T00:02:01.165Z,15.15
2019-06-08T00:03:01.383Z,15.14
2019-06-08T00:04:01.603Z,14.88
2019-06-08T00:05:01.837Z,14.91
2019-06-08T00:06:02.053Z,15.07
2019-06-08T00:07:02.277Z,14.99
2019-06-08T00:08:02.505Z,15.03
2019-06-08T00:09:02.738Z,14.94
2019-06-08T00:10:02.965Z,14.81
2019-06-08T00:11:03.215Z,14.81
2019-06-08T00:12:03.410Z,14.88
2019-06-08T00:13:03.641Z,14.92
2019-06-08T00:14:03.866Z,14.92
2019-06-08T00:15:04.097Z,14.88
2019-06-08T00:16:04.321Z,14.72
2019-06-08T00:17:04.548Z,14.81
2019-06-08T00:18:04.772Z,14.81
2019-06-08T00:19:04.991Z,14.84
2019-06-08T00:20:05.245Z,14.84
2019-06-08T00:21:05.457Z,14.73
2019-06-08T00:22:05.682Z,14.78
2019-06-08T00:23:05.908Z,14.86
2019-06-08T00:24:06.140Z,14.89
2019-06-08T00:25:06.357Z,14.86
2019-06-08T00:26:06.583Z,14.91
2019-06-08T00:27:06.804Z,14.88
2019-06-08T00:28:07.034Z,14.86
2019-06-08T00:29:07.264Z,14.82
2019-06-08T00:30:07.500Z,14.78
2019-06-08T00:31:07.713Z,14.81
2019-06-08T00:32:07.938Z,14.73
2019-06-08T00:33:08.163Z,14.60
2019-06-08T00:34:08.394Z,14.62
2019-06-08T00:35:08.616Z,14.62
2019-06-08T00:36:08.845Z,14.73
2019-06-08T00:37:09.070Z,14.63
2019-06-08T00:38:09.298Z,14.72
2019-06-08T00:39:09.522Z,14.77
2019-06-08T00:40:09.764Z,14.78
2019-06-08T00:41:09.976Z,14.78
2019-06-08T00:42:10.197Z,14.78
2019-06-08T00:43:10.424Z,14.86
2019-06-08T00:44:10.652Z,14.88
2019-06-08T00:45:10.878Z,14.91
2019-06-08T00:46:11.105Z,14.86
2019-06-08T00:47:11.334Z,14.78
2019-06-08T00:48:11.558Z,14.88
2019-06-08T00:49:11.784Z,14.86
2019-06-08T00:50:12.013Z,14.92
2019-06-08T00:51:12.238Z,14.94
2019-06-08T00:52:12.463Z,15.00
2019-06-08T00:53:12.688Z,14.94
2019-06-08T00:54:12.915Z,14.99
2019-06-08T00:55:13.141Z,14.92
2019-06-08T00:56:13.370Z,14.97
2019-06-08T00:57:13.593Z,14.91
2019-06-08T00:58:13.819Z,14.92
2019-06-08T00:59:14.045Z,14.96
2019-06-08T01:00:14.272Z,14.96
2019-06-08T01:01:14.497Z,15.00
2019-06-08T01:02:14.722Z,14.88
2019-06-08T01:03:14.970Z,14.91
2019-06-08T01:04:15.181Z,14.94
2019-06-08T01:05:15.402Z,14.91
2019-06-08T01:06:15.633Z,14.88
2019-06-08T01:07:15.880Z,14.99
2019-06-08T01:08:16.122Z,14.91
2019-06-08T01:09:16.325Z,14.88
2019-06-08T01:10:16.556Z,14.92
2019-06-08T01:11:16.776Z,14.94
2019-06-08T01:12:18.562Z,14.89
2019-06-08T01:13:18.743Z,14.88
2019-06-08T01:14:18.838Z,14.99
2019-06-08T01:15:23.800Z,14.86
2019-06-08T01:16:18.805Z,14.94
2019-06-08T01:17:19.261Z,14.94
2019-06-08T01:18:20.678Z,14.91
2019-06-08T01:19:19.174Z,14.94
2019-06-08T01:20:19.440Z,14.89
2019-06-08T01:21:19.388Z,14.97
2019-06-08T01:22:19.479Z,14.96
2019-06-08T01:23:19.569Z,14.94
2019-06-08T01:24:19.772Z,14.96
2019-06-08T01:25:20.259Z,14.91
2019-06-08T01:26:20.173Z,14.92
2019-06-08T01:27:21.940Z,14.89
2019-06-08T01:28:22.036Z,15.00
2019-06-08T01:29:22.171Z,14.89
2019-06-08T01:30:22.139Z,14.89
2019-06-08T01:31:22.398Z,14.86
2019-06-08T01:32:22.274Z,14.78
2019-06-08T01:33:22.549Z,14.78
2019-06-08T01:34:22.839Z,14.88
2019-06-08T01:35:22.855Z,14.85
2019-06-08T01:36:22.807Z,14.85
2019-06-08T01:37:23.007Z,14.85
2019-06-08T01:38:23.001Z,14.86
2019-06-08T01:39:23.110Z,14.77
2019-06-08T01:40:23.351Z,14.81
2019-06-08T01:41:23.560Z,14.73
2019-06-08T01:42:23.786Z,14.88
2019-06-08T01:43:24.010Z,14.94
2019-06-08T01:44:24.234Z,14.86
2019-06-08T01:45:25.477Z,14.92
2019-06-08T01:46:25.807Z,14.88
2019-06-08T01:47:26.113Z,14.89
2019-06-08T01:48:26.212Z,14.78
2019-06-08T01:49:26.193Z,14.84
2019-06-08T01:50:26.413Z,14.82
2019-06-08T01:51:26.562Z,14.86
2019-06-08T01:52:26.596Z,14.73
2019-06-08T01:53:26.827Z,14.88
2019-06-08T01:54:26.955Z,14.86
2019-06-08T01:55:27.056Z,14.81
2019-06-08T01:56:27.105Z,14.85
2019-06-08T01:57:27.223Z,14.96
2019-06-08T01:58:27.484Z,14.86
2019-06-08T01:59:27.629Z,14.97
2019-06-08T02:00:30.637Z,14.89
2019-06-08T02:01:28.073Z,14.91
2019-06-08T02:02:28.294Z,14.88
2019-06-08T02:03:28.533Z,14.92
2019-06-08T02:04:29.965Z,14.84
2019-06-08T02:05:30.229Z,14.85
2019-06-08T02:06:30.300Z,14.81
2019-06-08T02:07:30.407Z,14.62
2019-06-08T02:08:30.644Z,14.62
2019-06-08T02:09:30.626Z,14.70
2019-06-08T02:10:30.850Z,14.63
2019-06-08T02:11:30.840Z,14.70
2019-06-08T02:12:31.174Z,14.63
2019-06-08T02:13:31.053Z,14.60
2019-06-08T02:14:31.208Z,14.62
2019-06-08T02:15:31.939Z,14.68
2019-06-08T02:16:31.442Z,14.48
2019-06-08T02:17:31.668Z,14.45
2019-06-08T02:18:39.976Z,14.48
2019-06-08T02:19:32.700Z,14.47
2019-06-08T02:20:33.029Z,14.45
2019-06-08T02:21:32.858Z,14.48
2019-06-08T02:22:33.103Z,14.50
2019-06-08T02:23:33.155Z,14.45
2019-06-08T02:24:33.435Z,14.45
2019-06-08T02:25:33.654Z,14.45
2019-06-08T02:26:35.202Z,14.47
2019-06-08T02:27:33.923Z,14.36
2019-06-08T02:28:34.150Z,14.37
2019-06-08T02:29:35.683Z,14.43
2019-06-08T02:30:38.569Z,14.40
2019-06-08T02:31:35.547Z,14.45
2019-06-08T02:32:36.842Z,14.37
2019-06-08T02:33:37.141Z,14.43
2019-06-08T02:34:37.947Z,14.33
2019-06-08T02:35:37.670Z,14.30
2019-06-08T02:36:37.596Z,14.44
2019-06-08T02:37:38.327Z,14.37
2019-06-08T02:38:36.408Z,14.37
2019-06-08T02:39:38.418Z,14.35
2019-06-08T02:40:37.091Z,14.32
2019-06-08T02:41:37.561Z,14.28
2019-06-08T02:42:37.331Z,14.33
2019-06-08T02:43:38.266Z,14.35
2019-06-08T02:44:37.764Z,14.35
2019-06-08T02:45:38.954Z,14.28
2019-06-08T02:46:40.095Z,14.37
2019-06-08T02:47:38.443Z,14.32
2019-06-08T02:49:00.336Z,14.22
2019-06-08T02:49:39.731Z,14.30
2019-06-08T02:50:39.121Z,14.26
2019-06-08T02:51:40.997Z,14.25
2019-06-08T02:52:40.804Z,14.29
2019-06-08T02:53:41.424Z,14.25
2019-06-08T02:54:41.194Z,14.20
2019-06-08T02:55:40.258Z,14.25
2019-06-08T02:56:41.160Z,14.28
2019-06-08T02:57:40.705Z,14.22
2019-06-08T02:58:40.934Z,14.18
2019-06-08T02:59:41.191Z,14.26
2019-06-08T03:00:41.386Z,14.18
2019-06-08T03:01:41.614Z,14.18
2019-06-08T03:02:41.839Z,14.10
2019-06-08T03:03:42.067Z,14.17
2019-06-08T03:04:42.294Z,14.14
2019-06-08T03:05:42.523Z,14.15
2019-06-08T03:06:42.748Z,14.22
2019-06-08T03:07:42.991Z,14.17
2019-06-08T03:08:44.009Z,14.14
2019-06-08T03:09:43.427Z,14.15
2019-06-08T03:10:43.656Z,14.29
2019-06-08T03:11:43.880Z,14.17
2019-06-08T03:12:44.113Z,14.29
2019-06-08T03:13:44.330Z,14.26
2019-06-08T03:14:44.557Z,14.26
2019-06-08T03:15:44.783Z,14.37
2019-06-08T03:16:45.011Z,14.36
2019-06-08T03:17:45.238Z,14.33
2019-06-08T03:18:45.465Z,14.40
2019-06-08T03:19:45.689Z,14.35
2019-06-08T03:20:45.915Z,14.37
2019-06-08T03:21:46.141Z,14.41
2019-06-08T03:22:46.369Z,14.41
2019-06-08T03:23:46.595Z,14.35
2019-06-08T03:24:46.823Z,14.40
2019-06-08T03:25:52.778Z,14.37
2019-06-08T03:26:47.284Z,14.44
2019-06-08T03:27:47.506Z,14.45
2019-06-08T03:28:47.732Z,14.45
2019-06-08T03:29:47.959Z,14.45
2019-06-08T03:30:54.023Z,14.47
2019-06-08T03:31:55.691Z,14.53
2019-06-08T03:32:55.664Z,14.58
2019-06-08T03:33:54.916Z,14.54
2019-06-08T03:34:55.670Z,14.65
2019-06-08T03:35:57.105Z,14.60
2019-06-08T03:36:56.054Z,14.62
2019-06-08T03:37:49.771Z,14.63
2019-06-08T03:38:49.999Z,14.54
2019-06-08T03:39:50.222Z,14.62
2019-06-08T03:40:50.448Z,14.62
2019-06-08T03:41:50.677Z,14.60
2019-06-08T03:42:51.149Z,14.70
2019-06-08T03:43:51.122Z,14.62
2019-06-08T03:44:51.350Z,14.65
2019-06-08T03:45:51.577Z,14.65
2019-06-08T03:46:51.803Z,14.59
2019-06-08T03:47:52.033Z,14.69
2019-06-08T03:48:52.259Z,14.68
2019-06-08T03:49:57.280Z,14.66
2019-06-08T03:50:52.710Z,14.70
2019-06-08T03:51:52.936Z,14.85
2019-06-08T03:52:53.164Z,14.66
2019-06-08T03:53:53.389Z,14.84
2019-06-08T03:54:53.615Z,14.81
2019-06-08T03:55:53.842Z,14.82
2019-06-08T03:56:54.119Z,14.86
2019-06-08T03:57:54.342Z,14.91
2019-06-08T03:58:54.568Z,14.77
2019-06-08T03:59:54.803Z,14.85
2019-06-08T04:00:55.015Z,14.81
2019-06-08T04:01:55.249Z,14.73
2019-06-08T04:02:55.474Z,14.94
2019-06-08T04:03:59.746Z,14.91
2019-06-08T04:04:55.938Z,14.96
2019-06-08T04:05:56.154Z,14.86
2019-06-08T04:06:56.382Z,14.94
2019-06-08T04:07:56.606Z,15.00
2019-06-08T04:08:56.833Z,14.99
2019-06-08T04:09:57.059Z,14.91
2019-06-08T04:10:57.285Z,14.96
2019-06-08T04:11:57.514Z,14.91
2019-06-08T04:12:57.739Z,14.97
2019-06-08T04:13:57.966Z,15.04
2019-06-08T04:14:58.195Z,15.07
2019-06-08T04:15:58.416Z,15.03
2019-06-08T04:16:58.643Z,14.97
2019-06-08T04:17:58.869Z,15.04
2019-06-08T04:18:59.100Z,15.03
2019-06-08T04:20:10.295Z,15.09
2019-06-08T04:20:59.581Z,15.19
2019-06-08T04:21:59.776Z,15.17
2019-06-08T04:23:00.001Z,15.28
2019-06-08T04:24:00.229Z,15.25
2019-06-08T04:25:00.454Z,15.29
2019-06-08T04:26:00.683Z,15.35
2019-06-08T04:27:00.906Z,15.28
2019-06-08T04:28:01.133Z,15.40
2019-06-08T04:29:01.362Z,15.44
2019-06-08T04:30:01.601Z,15.46
2019-06-08T04:31:01.815Z,15.49
2019-06-08T04:32:02.085Z,15.57
2019-06-08T04:33:02.259Z,15.43
2019-06-08T04:34:02.488Z,15.43
2019-06-08T04:35:02.716Z,15.55
2019-06-08T04:36:02.940Z,15.61
2019-06-08T04:37:03.197Z,15.59
2019-06-08T04:38:03.398Z,15.65
2019-06-08T04:39:03.624Z,15.70
2019-06-08T04:40:03.855Z,15.73
2019-06-08T04:41:04.073Z,15.75
2019-06-08T04:42:04.298Z,15.80
2019-06-08T04:43:04.543Z,15.90
2019-06-08T04:44:04.753Z,15.88
2019-06-08T04:45:04.981Z,15.91
2019-06-08T04:46:05.207Z,15.91
2019-06-08T04:47:05.433Z,15.97
2019-06-08T04:48:09.558Z,16.47
2019-06-08T04:49:05.889Z,17.20
2019-06-08T04:50:21.711Z,17.72
2019-06-08T04:51:06.343Z,17.65
2019-06-08T04:52:06.574Z,17.54
2019-06-08T04:53:06.806Z,17.42
2019-06-08T04:54:07.023Z,17.46
2019-06-08T04:55:07.251Z,17.34
2019-06-08T04:56:07.481Z,17.16
2019-06-08T04:57:07.709Z,17.22
2019-06-08T04:58:07.936Z,17.26
2019-06-08T04:59:08.162Z,17.54
2019-06-08T05:00:11.763Z,17.56
2019-06-08T05:01:08.611Z,17.44
2019-06-08T05:02:08.839Z,17.34
2019-06-08T05:03:09.073Z,17.38
2019-06-08T05:04:09.303Z,17.64
2019-06-08T05:05:09.539Z,18.05
2019-06-08T05:06:09.761Z,18.00
2019-06-08T05:07:09.982Z,17.89
2019-06-08T05:08:10.210Z,17.80
2019-06-08T05:09:10.441Z,17.83
2019-06-08T05:10:10.664Z,17.95
2019-06-08T05:11:10.888Z,18.60
2019-06-08T05:12:11.125Z,19.07
2019-06-08T05:13:11.347Z,19.07
2019-06-08T05:14:11.574Z,18.93
2019-06-08T05:15:11.830Z,18.92
2019-06-08T05:16:12.034Z,19.07
2019-06-08T05:17:12.260Z,19.33
2019-06-08T05:18:12.509Z,19.34
2019-06-08T05:19:12.715Z,19.18
2019-06-08T05:20:12.942Z,19.12
2019-06-08T05:21:13.181Z,19.30
2019-06-08T05:22:13.400Z,19.19
2019-06-08T05:23:13.639Z,19.69
2019-06-08T05:24:13.856Z,19.34
2019-06-08T05:25:14.086Z,19.00
2019-06-08T05:26:14.311Z,18.92
2019-06-08T05:27:14.538Z,18.92
2019-06-08T05:28:14.797Z,18.66
2019-06-08T05:29:14.996Z,18.62
2019-06-08T05:30:15.244Z,18.55
2019-06-08T05:31:15.451Z,18.49
2019-06-08T05:32:15.682Z,18.26
2019-06-08T05:33:15.913Z,18.03
2019-06-08T05:34:16.141Z,18.11
2019-06-08T05:35:16.369Z,18.16
2019-06-08T05:36:16.595Z,18.05
2019-06-08T05:37:16.831Z,18.08
2019-06-08T05:38:17.064Z,18.05
2019-06-08T05:39:17.311Z,18.01
2019-06-08T05:40:17.519Z,18.11
2019-06-08T05:41:17.767Z,18.11
2019-06-08T05:42:17.969Z,17.90
2019-06-08T05:43:18.250Z,17.85
2019-06-08T05:44:18.441Z,17.86
2019-06-08T05:45:18.661Z,17.86
2019-06-08T05:46:18.890Z,17.85
2019-06-08T05:47:19.116Z,17.89
2019-06-08T05:48:19.345Z,17.95
2019-06-08T05:49:19.577Z,18.03
2019-06-08T05:50:19.808Z,18.08
2019-06-08T05:51:20.052Z,18.26
2019-06-08T05:52:20.260Z,18.44
2019-06-08T05:53:20.497Z,18.52
2019-06-08T05:54:20.726Z,18.52
2019-06-08T05:55:20.951Z,18.56
2019-06-08T05:56:21.184Z,18.74
2019-06-08T05:57:21.411Z,19.40
2019-06-08T05:58:21.636Z,20.03
2019-06-08T05:59:21.861Z,20.70
2019-06-08T06:00:22.090Z,21.54
2019-06-08T06:01:22.316Z,21.83
2019-06-08T06:02:22.549Z,22.22
2019-06-08T06:03:22.778Z,22.87
2019-06-08T06:04:23.009Z,23.44
2019-06-08T06:05:23.235Z,23.73
2019-06-08T06:06:23.468Z,23.91
2019-06-08T06:07:23.700Z,24.23
2019-06-08T06:08:23.931Z,24.54
2019-06-08T06:09:24.159Z,24.77
2019-06-08T06:10:24.398Z,25.28
2019-06-08T06:11:24.654Z,24.85
2019-06-08T06:12:24.861Z,24.28
2019-06-08T06:13:25.096Z,24.70
2019-06-08T06:14:25.325Z,25.06
2019-06-08T06:15:25.561Z,25.13
2019-06-08T06:16:25.795Z,25.14
2019-06-08T06:17:26.027Z,25.35
2019-06-08T06:18:26.261Z,24.89
2019-06-08T06:19:26.496Z,25.31
2019-06-08T06:20:26.730Z,24.69
2019-06-08T06:21:26.963Z,24.63
2019-06-08T06:22:27.185Z,24.28
2019-06-08T06:23:27.431Z,23.96
2019-06-08T06:24:27.657Z,24.36
2019-06-08T06:25:27.895Z,24.86
2019-06-08T06:26:28.130Z,24.98
2019-06-08T06:27:28.364Z,25.35
2019-06-08T06:28:28.597Z,25.21
2019-06-08T06:29:28.830Z,25.41
2019-06-08T06:30:29.063Z,25.63
2019-06-08T06:31:29.296Z,26.16
2019-06-08T06:32:29.535Z,26.13
2019-06-08T06:33:29.761Z,26.47
2019-06-08T06:34:30.000Z,26.68
2019-06-08T06:35:30.233Z,26.40
2019-06-08T06:36:30.467Z,26.44
2019-06-08T06:37:30.704Z,26.06
2019-06-08T06:38:30.942Z,26.28
2019-06-08T06:39:31.173Z,25.73
2019-06-08T06:40:31.459Z,25.91
2019-06-08T06:41:31.643Z,25.80
2019-06-08T06:42:31.879Z,25.59
2019-06-08T06:43:32.114Z,25.70
2019-06-08T06:44:32.352Z,25.50
2019-06-08T06:45:32.584Z,25.33
2019-06-08T06:46:32.838Z,25.35
2019-06-08T06:47:33.052Z,25.31
2019-06-08T06:48:33.282Z,25.62
2019-06-08T06:49:33.519Z,25.48
2019-06-08T06:50:33.773Z,25.14
2019-06-08T06:51:34.082Z,25.07
2019-06-08T06:52:34.222Z,25.06
2019-06-08T06:53:34.460Z,25.08
2019-06-08T06:54:34.697Z,24.78
2019-06-08T06:55:34.930Z,24.73
2019-06-08T06:56:35.167Z,24.60
2019-06-08T06:57:36.677Z,24.20
2019-06-08T06:58:35.630Z,24.18
2019-06-08T06:59:35.865Z,24.39
2019-06-08T07:00:36.099Z,23.66
2019-06-08T07:01:36.334Z,23.63
2019-06-08T07:02:36.563Z,23.23
2019-06-08T07:03:36.801Z,22.96
2019-06-08T07:04:37.040Z,23.12
2019-06-08T07:05:37.261Z,22.91
2019-06-08T07:06:37.497Z,22.65
2019-06-08T07:07:37.735Z,22.53
2019-06-08T07:08:37.965Z,22.30
2019-06-08T07:09:38.197Z,22.02
2019-06-08T07:10:38.434Z,22.17
2019-06-08T07:11:38.664Z,22.04
2019-06-08T07:12:38.898Z,22.14
2019-06-08T07:13:39.134Z,22.07
2019-06-08T07:14:39.364Z,21.88
2019-06-08T07:15:41.901Z,21.79
2019-06-08T07:16:39.831Z,21.69
2019-06-08T07:17:40.060Z,21.62
2019-06-08T07:18:40.290Z,21.64
2019-06-08T07:19:40.531Z,21.67
2019-06-08T07:20:40.764Z,21.55
2019-06-08T07:21:42.169Z,21.51
2019-06-08T07:22:41.219Z,21.55
2019-06-08T07:23:41.452Z,21.36
2019-06-08T07:24:41.685Z,21.54
2019-06-08T07:25:41.919Z,21.66
2019-06-08T07:26:42.151Z,21.72
2019-06-08T07:27:42.389Z,21.70
2019-06-08T07:28:42.618Z,21.42
2019-06-08T07:29:42.850Z,21.58
2019-06-08T07:30:43.081Z,21.82
2019-06-08T07:31:43.315Z,21.83
2019-06-08T07:32:43.549Z,21.58
2019-06-08T07:33:43.906Z,21.58
2019-06-08T07:34:44.007Z,21.54
2019-06-08T07:35:44.239Z,21.46
2019-06-08T07:36:44.470Z,21.20
2019-06-08T07:37:44.703Z,21.02
2019-06-08T07:38:44.938Z,20.85
2019-06-08T07:39:45.159Z,20.58
2019-06-08T07:40:45.392Z,20.40
2019-06-08T07:41:45.624Z,20.44
2019-06-08T07:42:45.914Z,20.28
2019-06-08T07:43:46.083Z,20.22
2019-06-08T07:44:46.827Z,20.24
2019-06-08T07:45:47.750Z,20.09
2019-06-08T07:46:47.047Z,20.10
2019-06-08T07:47:47.914Z,19.94
2019-06-08T07:48:48.099Z,19.94
2019-06-08T07:49:47.506Z,20.18
2019-06-08T07:50:48.364Z,20.18
2019-06-08T07:51:58.921Z,20.34
2019-06-08T07:52:49.897Z,20.28
2019-06-08T07:53:49.704Z,20.36
2019-06-08T07:54:49.740Z,20.55
2019-06-08T07:55:50.086Z,20.55
2019-06-08T07:56:50.119Z,20.25
2019-06-08T07:57:50.474Z,20.37
2019-06-08T07:58:50.143Z,20.40
2019-06-08T07:59:50.324Z,20.29
2019-06-08T08:00:50.477Z,20.52
2019-06-08T08:01:50.237Z,20.51
2019-06-08T08:02:50.459Z,20.66
2019-06-08T08:03:50.688Z,20.59
2019-06-08T08:04:50.922Z,20.67
2019-06-08T08:05:53.173Z,20.78
2019-06-08T08:06:52.438Z,20.63
2019-06-08T08:07:52.554Z,20.81
2019-06-08T08:08:52.609Z,20.70
2019-06-08T08:09:53.162Z,20.70
2019-06-08T08:10:52.404Z,20.59
2019-06-08T08:11:52.883Z,20.52
2019-06-08T08:12:52.771Z,20.60
2019-06-08T08:13:53.256Z,20.66
2019-06-08T08:14:53.354Z,20.77
2019-06-08T08:15:56.942Z,20.77
2019-06-08T08:16:54.930Z,20.70
2019-06-08T08:17:53.946Z,20.84
2019-06-08T08:18:55.463Z,20.72
2019-06-08T08:19:55.168Z,20.75
2019-06-08T08:20:55.813Z,20.88
2019-06-08T08:21:56.099Z,21.09
2019-06-08T08:22:59.664Z,21.07
2019-06-08T08:23:57.924Z,21.17
2019-06-08T08:25:00.211Z,21.32
2019-06-08T08:25:55.725Z,21.18
2019-06-08T08:26:59.300Z,21.27
2019-06-08T08:27:58.167Z,21.30
2019-06-08T08:28:59.899Z,21.37
2019-06-08T08:29:59.999Z,21.55
2019-06-08T08:30:59.978Z,21.66
2019-06-08T08:32:00.067Z,21.64
2019-06-08T08:33:01.746Z,21.76
2019-06-08T08:34:03.364Z,21.76
2019-06-08T08:35:00.294Z,21.42
2019-06-08T08:36:00.600Z,21.42
2019-06-08T08:37:02.027Z,21.52
2019-06-08T08:38:02.333Z,21.37
2019-06-08T08:39:00.988Z,21.61
2019-06-08T08:40:01.353Z,21.51
2019-06-08T08:41:06.155Z,21.27
2019-06-08T08:42:04.761Z,21.45
2019-06-08T08:43:01.502Z,21.51
2019-06-08T08:44:04.175Z,21.42
2019-06-08T08:45:04.970Z,21.32
2019-06-08T08:46:01.799Z,21.30
2019-06-08T08:47:02.589Z,21.22
2019-06-08T08:48:21.088Z,21.05
2019-06-08T08:49:09.114Z,20.99
2019-06-08T08:50:02.149Z,21.00
2019-06-08T08:51:03.623Z,21.07
2019-06-08T08:52:01.816Z,21.24
2019-06-08T08:53:02.400Z,21.30
2019-06-08T08:54:05.233Z,21.35
2019-06-08T08:55:02.370Z,21.35
2019-06-08T08:56:02.706Z,21.30
2019-06-08T08:57:05.060Z,21.12
2019-06-08T08:58:03.061Z,21.06
2019-06-08T08:59:03.292Z,21.12
2019-06-08T09:00:05.141Z,21.11
2019-06-08T09:01:03.992Z,21.29
2019-06-08T09:02:03.980Z,21.35
2019-06-08T09:03:24.310Z,21.43
2019-06-08T09:04:05.220Z,21.54
2019-06-08T09:05:04.675Z,21.40
2019-06-08T09:06:04.906Z,21.30
2019-06-08T09:07:07.832Z,21.25
2019-06-08T09:08:05.365Z,21.17
2019-06-08T09:09:05.597Z,21.27
2019-06-08T09:10:08.584Z,21.30
2019-06-08T09:11:08.094Z,21.48
2019-06-08T09:12:08.297Z,21.67
2019-06-08T09:13:11.713Z,21.64
2019-06-08T09:14:10.907Z,21.80
2019-06-08T09:15:08.531Z,22.14
2019-06-08T09:16:08.094Z,22.33
2019-06-08T09:17:08.676Z,22.65
2019-06-08T09:18:08.146Z,22.60
2019-06-08T09:19:08.485Z,22.70
2019-06-08T09:20:13.037Z,22.68
2019-06-08T09:21:08.621Z,22.43
2019-06-08T09:22:08.785Z,22.39
2019-06-08T09:23:15.795Z,22.38
2019-06-08T09:24:09.078Z,22.62
2019-06-08T09:25:09.378Z,22.80
2019-06-08T09:26:12.750Z,22.72
2019-06-08T09:27:09.773Z,22.69
2019-06-08T09:28:09.992Z,22.75
2019-06-08T09:29:11.186Z,22.98
2019-06-08T09:30:10.470Z,22.93
2019-06-08T09:31:12.932Z,22.66
2019-06-08T09:32:10.915Z,22.80
2019-06-08T09:33:11.161Z,22.23
2019-06-08T09:34:15.301Z,22.28
2019-06-08T09:35:11.610Z,22.15
2019-06-08T09:36:11.862Z,22.20
2019-06-08T09:37:12.065Z,22.32
2019-06-08T09:38:12.296Z,22.18
2019-06-08T09:39:13.330Z,21.92
2019-06-08T09:40:12.762Z,21.95
2019-06-08T09:41:13.003Z,21.96
2019-06-08T09:42:13.221Z,22.18
2019-06-08T09:43:13.530Z,22.30
2019-06-08T09:44:13.758Z,22.50
2019-06-08T09:45:13.929Z,22.57
2019-06-08T09:46:14.174Z,22.69
2019-06-08T09:47:14.384Z,22.91
2019-06-08T09:48:14.618Z,22.80
2019-06-08T09:49:14.842Z,22.76
2019-06-08T09:50:15.088Z,22.60
2019-06-08T09:51:15.307Z,22.68
2019-06-08T09:52:18.188Z,22.88
2019-06-08T09:53:28.010Z,22.78
2019-06-08T09:54:18.232Z,22.84
2019-06-08T09:55:18.104Z,22.90
2019-06-08T09:56:18.529Z,23.06
2019-06-08T09:57:18.871Z,23.02
2019-06-08T09:58:18.084Z,22.96
2019-06-08T09:59:18.784Z,22.87
2019-06-08T10:00:21.308Z,22.76
2019-06-08T10:01:18.453Z,22.70
2019-06-08T10:02:18.427Z,22.70
2019-06-08T10:03:18.650Z,22.59
2019-06-08T10:04:18.318Z,22.57
2019-06-08T10:05:18.762Z,22.72
2019-06-08T10:06:18.783Z,22.70
2019-06-08T10:07:19.011Z,22.96
2019-06-08T10:08:20.704Z,22.90
2019-06-08T10:09:19.473Z,22.76
2019-06-08T10:10:19.704Z,22.50
2019-06-08T10:11:19.935Z,22.44
2019-06-08T10:12:20.166Z,22.41
2019-06-08T10:13:20.397Z,22.13
2019-06-08T10:14:20.632Z,22.29
2019-06-08T10:15:20.856Z,22.25
2019-06-08T10:16:21.089Z,21.99
2019-06-08T10:17:21.318Z,22.04
2019-06-08T10:18:21.549Z,22.04
2019-06-08T10:19:21.779Z,21.92
2019-06-08T10:20:22.013Z,21.98
2019-06-08T10:21:22.244Z,22.02
2019-06-08T10:22:22.471Z,21.82
2019-06-08T10:23:30.830Z,21.79
2019-06-08T10:24:22.933Z,21.79
2019-06-08T10:25:23.163Z,21.66
2019-06-08T10:26:23.385Z,21.62
2019-06-08T10:27:23.616Z,21.60
2019-06-08T10:28:23.901Z,21.61
2019-06-08T10:29:24.101Z,21.70
2019-06-08T10:30:24.312Z,21.61
2019-06-08T10:31:36.459Z,21.73
2019-06-08T10:32:24.773Z,21.98
2019-06-08T10:33:25.004Z,22.15
2019-06-08T10:34:27.288Z,22.14
2019-06-08T10:35:28.213Z,22.44
2019-06-08T10:36:28.173Z,22.57
2019-06-08T10:37:28.210Z,22.69
2019-06-08T10:38:28.781Z,22.81
2019-06-08T10:39:28.304Z,22.94
2019-06-08T10:40:28.586Z,23.03
2019-06-08T10:41:27.827Z,22.84
2019-06-08T10:42:27.088Z,22.63
2019-06-08T10:43:28.901Z,22.65
2019-06-08T10:44:28.351Z,22.55
2019-06-08T10:45:28.620Z,22.60
2019-06-08T10:46:28.011Z,22.29
2019-06-08T10:47:29.774Z,22.22
2019-06-08T10:48:28.476Z,22.32
2019-06-08T10:49:28.925Z,22.30
2019-06-08T10:50:28.969Z,22.32
2019-06-08T10:51:29.163Z,22.29
2019-06-08T10:52:29.399Z,22.36
2019-06-08T10:53:44.958Z,22.48
2019-06-08T10:54:29.867Z,22.45
2019-06-08T10:55:30.087Z,22.47
2019-06-08T10:56:31.153Z,22.53
2019-06-08T10:57:30.550Z,22.63
2019-06-08T10:58:30.785Z,22.75
2019-06-08T10:59:31.014Z,22.83
2019-06-08T11:00:31.246Z,22.85
2019-06-08T11:01:31.478Z,22.83
2019-06-08T11:02:31.709Z,22.70
2019-06-08T11:03:31.940Z,22.65
2019-06-08T11:04:32.171Z,22.45
2019-06-08T11:05:32.403Z,22.36
2019-06-08T11:06:32.633Z,22.54
2019-06-08T11:07:32.864Z,22.53
2019-06-08T11:08:33.106Z,22.36
2019-06-08T11:09:33.394Z,22.28
2019-06-08T11:10:33.559Z,22.28
2019-06-08T11:11:33.796Z,22.30
2019-06-08T11:12:34.021Z,22.44
2019-06-08T11:13:34.252Z,22.38
2019-06-08T11:14:34.485Z,22.39
2019-06-08T11:15:34.715Z,22.23
2019-06-08T11:16:34.953Z,22.10
2019-06-08T11:17:37.752Z,22.14
2019-06-08T11:18:35.407Z,22.02
2019-06-08T11:19:37.661Z,22.00
2019-06-08T11:20:38.174Z,21.91
2019-06-08T11:21:38.377Z,21.82
2019-06-08T11:22:36.350Z,21.82
2019-06-08T11:23:38.457Z,21.92
2019-06-08T11:24:38.805Z,21.85
2019-06-08T11:25:37.648Z,22.14
2019-06-08T11:26:39.972Z,22.18
2019-06-08T11:27:38.763Z,22.22
2019-06-08T11:28:38.282Z,22.04
2019-06-08T11:29:38.463Z,22.22
2019-06-08T11:30:38.378Z,22.30
2019-06-08T11:31:39.257Z,22.29
2019-06-08T11:32:38.653Z,22.08
2019-06-08T11:33:39.133Z,21.92
2019-06-08T11:34:39.095Z,21.88
2019-06-08T11:35:39.335Z,21.67
2019-06-08T11:36:39.706Z,21.54
2019-06-08T11:37:40.891Z,21.54
2019-06-08T11:38:40.029Z,21.51
2019-06-08T11:39:40.264Z,21.52
2019-06-08T11:40:40.490Z,21.54
2019-06-08T11:41:40.719Z,21.48
2019-06-08T11:42:40.948Z,21.43
2019-06-08T11:43:41.178Z,21.36
2019-06-08T11:44:41.411Z,21.39
2019-06-08T11:45:41.641Z,21.46
2019-06-08T11:46:42.665Z,21.48
2019-06-08T11:47:42.105Z,21.51
2019-06-08T11:48:42.344Z,21.57
2019-06-08T11:49:42.552Z,21.48
2019-06-08T11:50:42.785Z,21.54
2019-06-08T11:51:43.026Z,21.54
2019-06-08T11:52:43.245Z,21.43
2019-06-08T11:53:43.485Z,21.40
2019-06-08T11:54:43.716Z,21.46
2019-06-08T11:55:43.948Z,21.55
2019-06-08T11:56:44.180Z,21.42
2019-06-08T11:57:44.407Z,21.32
2019-06-08T11:58:44.650Z,21.45
2019-06-08T11:59:44.868Z,21.52
2019-06-08T12:00:45.102Z,21.58
2019-06-08T12:01:45.333Z,21.61
2019-06-08T12:02:45.564Z,21.64
2019-06-08T12:03:48.226Z,21.58
2019-06-08T12:04:46.031Z,21.62
2019-06-08T12:05:47.794Z,21.69
2019-06-08T12:06:48.401Z,21.72
2019-06-08T12:07:48.056Z,21.60
2019-06-08T12:08:47.340Z,21.64
2019-06-08T12:09:49.942Z,21.73
2019-06-08T12:10:49.093Z,21.66
2019-06-08T12:11:48.133Z,21.89
2019-06-08T12:12:47.867Z,21.80
2019-06-08T12:13:48.098Z,21.77
2019-06-08T12:14:48.331Z,21.79
2019-06-08T12:15:48.891Z,21.79
2019-06-08T12:16:48.789Z,21.75
2019-06-08T12:17:50.370Z,21.83
2019-06-08T12:18:49.468Z,21.80
2019-06-08T12:19:49.478Z,21.92
2019-06-08T12:20:49.710Z,22.00
2019-06-08T12:21:49.995Z,22.20
2019-06-08T12:22:50.182Z,22.23
2019-06-08T12:23:50.405Z,22.23
2019-06-08T12:24:50.632Z,22.26
2019-06-08T12:25:50.863Z,22.32
2019-06-08T12:26:55.596Z,22.23
2019-06-08T12:27:52.796Z,22.17
2019-06-08T12:28:51.555Z,22.25
2019-06-08T12:29:51.789Z,22.25
2019-06-08T12:30:52.021Z,22.36
2019-06-08T12:31:52.253Z,22.18
2019-06-08T12:32:52.480Z,22.23
2019-06-08T12:33:52.713Z,22.18
2019-06-08T12:34:52.945Z,22.14
2019-06-08T12:35:53.177Z,22.14
2019-06-08T12:36:53.403Z,22.10
2019-06-08T12:37:53.634Z,22.14
2019-06-08T12:38:53.862Z,22.30
2019-06-08T12:39:54.091Z,22.13
2019-06-08T12:40:54.322Z,22.35
2019-06-08T12:41:54.556Z,22.26
2019-06-08T12:42:54.785Z,22.28
2019-06-08T12:43:55.028Z,22.18
2019-06-08T12:44:55.261Z,22.29
2019-06-08T12:45:57.895Z,22.25
2019-06-08T12:46:58.387Z,22.35
2019-06-08T12:47:55.941Z,22.39
2019-06-08T12:48:58.095Z,22.32
2019-06-08T12:49:58.532Z,22.43
2019-06-08T12:50:56.633Z,22.23
2019-06-08T12:51:58.089Z,22.36
2019-06-08T12:52:58.336Z,22.44
2019-06-08T12:53:59.991Z,22.50
2019-06-08T12:55:06.076Z,22.45